Time;durP1;ratioP1;P1;durP2;ratioP2;P2;SDS_P1;SDS_P2;PMS_P1;PMS_P2;Temp;Humidity;BMP_temperature;BMP_pressure;BME280_temperature;BME280_humidity;BME280_pressure;Samples;Min_cycle;Max_cycle;Signal;HPM_P1;HPM_P2
2023/04/19 00:00:34;;;;;;;10.18;3.20;;;11.60;73.60;;;;;;5090681;28;20023;-69
2023/04/19 00:03:01;;;;;;;8.63;3.03;;;11.70;73.90;;;;;;5091051;28;20123;-70
2023/04/19 00:05:27;;;;;;;6.35;2.75;;;11.70;74.10;;;;;;5090809;28;20457;-68
2023/04/19 00:07:53;;;;;;;6.93;2.60;;;11.70;73.60;;;;;;5090615;28;20035;-71
2023/04/19 00:10:19;;;;;;;6.68;3.08;;;11.70;73.40;;;;;;5091258;28;20027;-69
2023/04/19 00:12:45;;;;;;;9.75;4.50;;;11.60;73.20;;;;;;5090800;28;20036;-70
2023/04/19 00:15:11;;;;;;;7.63;2.80;;;11.60;73.40;;;;;;5090738;28;20533;-70
2023/04/19 00:17:37;;;;;;;4.45;2.47;;;11.60;73.30;;;;;;5090738;28;20049;-69
2023/04/19 00:20:04;;;;;;;7.07;2.78;;;11.60;72.20;;;;;;5089045;28;20028;-71
2023/04/19 00:22:30;;;;;;;5.38;2.67;;;11.50;72.00;;;;;;5090714;28;20028;-69
2023/04/19 00:24:56;;;;;;;7.47;2.63;;;11.50;72.10;;;;;;5091058;28;20089;-69
2023/04/19 00:27:21;;;;;;;4.35;2.55;;;11.50;71.70;;;;;;5090629;28;20032;-69
2023/04/19 00:29:47;;;;;;;5.00;2.03;;;11.40;71.50;;;;;;5090455;28;20043;-71
2023/04/19 00:32:14;;;;;;;6.63;2.42;;;11.40;71.60;;;;;;5089256;28;20448;-69
2023/04/19 00:34:39;;;;;;;13.45;2.60;;;11.40;71.40;;;;;;5090426;28;20016;-69
2023/04/19 00:37:05;;;;;;;7.60;2.72;;;11.40;71.30;;;;;;5091006;28;20035;-69
2023/04/19 00:39:31;;;;;;;5.55;2.42;;;11.30;71.10;;;;;;5090303;28;20491;-70
2023/04/19 00:41:57;;;;;;;8.93;2.78;;;11.20;71.30;;;;;;5090405;28;20408;-70
2023/04/19 00:44:23;;;;;;;9.63;2.30;;;11.20;71.40;;;;;;5090386;28;20142;-70
2023/04/19 00:46:49;;;;;;;4.90;2.15;;;11.10;71.40;;;;;;5090081;28;20036;-70
2023/04/19 00:49:16;;;;;;;11.50;2.13;;;11.00;71.60;;;;;;5090647;28;20024;-70
2023/04/19 00:51:42;;;;;;;7.50;2.58;;;11.30;72.30;;;;;;5090208;28;20032;-69
2023/04/19 00:54:08;;;;;;;3.92;2.13;;;11.10;72.30;;;;;;5090242;28;20111;-70
2023/04/19 00:56:34;;;;;;;4.38;2.20;;;11.10;72.20;;;;;;5090332;28;20056;-70
2023/04/19 00:59:01;;;;;;;5.32;2.42;;;11.00;72.20;;;;;;5089202;28;20048;-70
2023/04/19 01:01:27;;;;;;;8.25;2.33;;;10.90;72.30;;;;;;5090251;28;20070;-70
2023/04/19 01:03:54;;;;;;;5.13;2.67;;;10.80;73.00;;;;;;5090653;28;20012;-70
2023/04/19 01:06:20;;;;;;;4.35;2.15;;;10.70;72.40;;;;;;5089920;28;20028;-69
2023/04/19 01:08:45;;;;;;;10.10;2.33;;;10.70;72.50;;;;;;5089986;28;20123;-69
2023/04/19 01:11:11;;;;;;;7.00;2.70;;;10.70;72.80;;;;;;5090158;28;20509;-70
2023/04/19 01:13:37;;;;;;;7.10;2.70;;;10.70;73.00;;;;;;5090171;28;20024;-70
2023/04/19 01:16:03;;;;;;;4.47;2.10;;;10.60;73.30;;;;;;5090586;28;20024;-69
2023/04/19 01:18:34;;;;;;;4.93;2.30;;;10.60;73.40;;;;;;5090019;28;20032;-69
2023/04/19 01:21:00;;;;;;;4.82;2.03;;;10.40;73.50;;;;;;5089983;28;20028;-70
2023/04/19 01:23:25;;;;;;;4.20;2.30;;;10.40;73.80;;;;;;5088789;28;20024;-69
2023/04/19 01:25:51;;;;;;;7.40;2.38;;;10.30;74.00;;;;;;5088726;28;20032;-70
2023/04/19 01:28:17;;;;;;;5.85;2.50;;;10.20;74.10;;;;;;5089356;28;20020;-69
2023/04/19 01:30:43;;;;;;;5.60;1.95;;;10.10;74.30;;;;;;5089947;28;20373;-69
2023/04/19 01:33:08;;;;;;;5.15;2.42;;;10.20;74.60;;;;;;5091352;28;20033;-69
2023/04/19 01:35:34;;;;;;;5.40;2.05;;;10.10;74.70;;;;;;5087150;28;20462;-70
2023/04/19 01:38:00;;;;;;;3.28;2.25;;;10.10;74.80;;;;;;5072302;28;20033;-69
2023/04/19 01:40:26;;;;;;;5.28;1.73;;;10.00;74.90;;;;;;5073225;28;20107;-69
2023/04/19 01:42:52;;;;;;;3.17;2.08;;;10.00;75.10;;;;;;5073932;28;20123;-69
2023/04/19 01:45:18;;;;;;;4.18;2.10;;;10.00;75.40;;;;;;5073113;28;20113;-69
2023/04/19 01:47:44;;;;;;;5.78;2.40;;;10.00;75.50;;;;;;5073046;28;20113;-69
2023/04/19 01:50:10;;;;;;;3.08;1.98;;;9.90;76.80;;;;;;5073224;28;20036;-68
2023/04/19 01:52:35;;;;;;;5.53;2.10;;;10.00;75.90;;;;;;5072774;28;20043;-70
2023/04/19 01:55:01;;;;;;;2.83;1.95;;;9.90;77.10;;;;;;5073769;28;20025;-68
2023/04/19 01:57:27;;;;;;;4.43;2.10;;;9.90;77.20;;;;;;5072817;28;20033;-69
2023/04/19 01:59:53;;;;;;;6.47;2.30;;;10.00;76.50;;;;;;5072778;28;20035;-69
2023/04/19 02:02:19;;;;;;;6.68;2.28;;;9.80;77.60;;;;;;5072713;28;20035;-68
2023/04/19 02:04:44;;;;;;;3.28;2.10;;;9.80;77.60;;;;;;5073025;28;20024;-68
2023/04/19 02:07:10;;;;;;;4.75;2.15;;;10.00;76.80;;;;;;5073130;28;20413;-69
2023/04/19 02:09:37;;;;;;;7.70;2.22;;;9.90;77.70;;;;;;5072281;28;20028;-69
2023/04/19 02:12:04;;;;;;;6.53;1.90;;;9.90;77.70;;;;;;5072696;28;20222;-68
2023/04/19 02:14:31;;;;;;;3.70;2.00;;;9.90;77.90;;;;;;5072501;28;20032;-69
2023/04/19 02:16:57;;;;;;;7.18;2.33;;;9.90;77.90;;;;;;5071149;28;20028;-69
2023/04/19 02:19:23;;;;;;;7.45;2.20;;;9.90;78.10;;;;;;5072905;28;20021;-67
2023/04/19 02:21:48;;;;;;;10.48;2.17;;;9.90;78.00;;;;;;5071468;28;20123;-69
2023/04/19 02:24:14;;;;;;;2.65;1.60;;;9.90;78.20;;;;;;5072232;28;20525;-69
2023/04/19 02:26:40;;;;;;;3.65;1.92;;;9.90;78.40;;;;;;5072483;28;20044;-68
2023/04/19 02:29:06;;;;;;;3.80;1.90;;;9.80;78.40;;;;;;5072384;28;20040;-68
2023/04/19 02:31:31;;;;;;;5.13;2.60;;;9.80;78.60;;;;;;5071160;28;20123;-69
2023/04/19 02:33:57;;;;;;;5.38;2.13;;;9.80;78.80;;;;;;5072930;28;20024;-69
2023/04/19 02:36:23;;;;;;;6.95;2.05;;;9.80;78.80;;;;;;5072425;28;20032;-69
2023/04/19 02:38:49;;;;;;;4.15;2.00;;;9.80;79.00;;;;;;5072418;28;20043;-68
2023/04/19 02:41:15;;;;;;;3.92;1.98;;;9.80;79.10;;;;;;5072508;28;20036;-68
2023/04/19 02:43:40;;;;;;;7.55;2.20;;;9.70;79.70;;;;;;5070863;28;20108;-69
2023/04/19 02:46:06;;;;;;;5.47;2.05;;;9.70;79.80;;;;;;5072468;28;20096;-69
2023/04/19 02:48:32;;;;;;;4.20;2.03;;;9.70;79.40;;;;;;5072206;28;20109;-69
2023/04/19 02:50:58;;;;;;;4.93;2.10;;;9.70;79.50;;;;;;5072095;28;20454;-68
2023/04/19 02:53:23;;;;;;;3.78;2.05;;;9.60;79.70;;;;;;5071803;28;20040;-69
2023/04/19 02:55:49;;;;;;;5.63;2.08;;;9.50;79.80;;;;;;5071917;28;20373;-69
2023/04/19 02:58:15;;;;;;;4.78;1.77;;;9.50;80.00;;;;;;5072341;28;20115;-69
2023/04/19 03:00:41;;;;;;;5.90;1.88;;;9.50;80.30;;;;;;5071723;28;20064;-69
2023/04/19 03:03:08;;;;;;;4.93;1.80;;;9.40;80.50;;;;;;5071433;28;20031;-69
2023/04/19 03:05:34;;;;;;;5.55;2.50;;;9.30;80.50;;;;;;5071747;28;20039;-69
2023/04/19 03:07:59;;;;;;;5.63;2.13;;;9.40;80.60;;;;;;5071506;28;20382;-69
2023/04/19 03:10:25;;;;;;;6.30;2.15;;;9.40;80.80;;;;;;5071434;28;20469;-69
2023/04/19 03:12:50;;;;;;;10.63;2.20;;;9.30;80.80;;;;;;5071366;28;20040;-68
2023/04/19 03:15:19;;;;;;;6.80;2.33;;;9.30;80.90;;;;;;5070466;28;20517;-68
2023/04/19 03:17:45;;;;;;;5.20;2.25;;;9.20;81.00;;;;;;5071459;28;20492;-69
2023/04/19 03:20:10;;;;;;;5.60;1.95;;;9.30;81.20;;;;;;5071336;28;20024;-68
2023/04/19 03:22:37;;;;;;;3.65;2.10;;;9.20;81.20;;;;;;5070395;28;20496;-67
2023/04/19 03:25:06;;;;;;;11.02;4.55;;;9.30;81.30;;;;;;5071521;28;20040;-67
2023/04/19 03:27:35;;;;;;;5.32;2.67;;;9.20;81.50;;;;;;5070094;28;20028;-68
2023/04/19 03:30:01;;;;;;;3.40;2.05;;;9.30;81.50;;;;;;5070359;28;20036;-68
2023/04/19 03:32:27;;;;;;;8.23;2.45;;;9.20;81.40;;;;;;5071181;28;20425;-69
2023/04/19 03:34:52;;;;;;;8.70;2.95;;;9.20;81.50;;;;;;5071039;28;20020;-67
2023/04/19 03:37:18;;;;;;;3.30;1.80;;;9.30;81.70;;;;;;5071399;28;20481;-68
2023/04/19 03:39:46;;;;;;;6.50;2.10;;;9.20;81.60;;;;;;5069985;28;20136;-68
2023/04/19 03:42:12;;;;;;;5.32;1.98;;;9.20;81.80;;;;;;5071415;28;20032;-69
2023/04/19 03:44:37;;;;;;;3.78;2.03;;;9.20;82.00;;;;;;5070933;28;20039;-67
2023/04/19 03:47:03;;;;;;;7.82;2.42;;;9.10;82.10;;;;;;5070837;28;20451;-69
2023/04/19 03:49:29;;;;;;;4.90;2.40;;;9.10;82.10;;;;;;5069866;28;20028;-69
2023/04/19 03:51:54;;;;;;;5.68;2.10;;;9.10;82.30;;;;;;5071290;28;20043;-69
2023/04/19 03:54:20;;;;;;;8.32;2.38;;;9.10;82.40;;;;;;5070351;28;20083;-68
2023/04/19 03:56:46;;;;;;;6.93;2.53;;;9.00;82.30;;;;;;5070957;28;20032;-69
2023/04/19 03:59:12;;;;;;;6.78;2.13;;;8.90;82.60;;;;;;5070872;28;20021;-70
2023/04/19 04:01:40;;;;;;;4.88;2.10;;;9.00;82.80;;;;;;5070458;28;20017;-69
2023/04/19 04:04:11;;;;;;;5.50;2.15;;;8.90;82.90;;;;;;5070134;28;20040;-69
2023/04/19 04:06:36;;;;;;;5.68;2.05;;;8.90;83.10;;;;;;5070458;28;20036;-68
2023/04/19 04:09:02;;;;;;;5.68;2.15;;;8.90;83.10;;;;;;5070600;28;20029;-66
2023/04/19 04:11:28;;;;;;;5.05;2.63;;;8.80;83.30;;;;;;5070663;28;20053;-68
2023/04/19 04:13:55;;;;;;;4.15;1.95;;;8.80;83.60;;;;;;5070594;28;20438;-67
2023/04/19 04:16:21;;;;;;;7.72;2.38;;;8.70;83.70;;;;;;5071276;28;20021;-68
2023/04/19 04:18:47;;;;;;;5.32;2.03;;;8.70;83.80;;;;;;5070510;28;20453;-68
2023/04/19 04:21:12;;;;;;;6.47;2.40;;;8.70;83.90;;;;;;5070450;28;20047;-68
2023/04/19 04:23:38;;;;;;;3.95;2.00;;;8.70;84.00;;;;;;5070612;28;20028;-68
2023/04/19 04:26:05;;;;;;;5.85;2.50;;;8.60;84.10;;;;;;5070427;28;20415;-68
2023/04/19 04:28:31;;;;;;;5.03;2.22;;;8.60;84.40;;;;;;5070572;28;20031;-68
2023/04/19 04:30:57;;;;;;;6.28;2.28;;;8.50;84.50;;;;;;5069775;28;20047;-68
2023/04/19 04:33:27;;;;;;;6.97;2.88;;;8.50;84.70;;;;;;5069954;28;20385;-70
2023/04/19 04:35:54;;;;;;;4.72;2.10;;;8.50;84.80;;;;;;5070158;28;20277;-68
2023/04/19 04:38:20;;;;;;;6.95;1.88;;;8.60;84.90;;;;;;5070288;28;20135;-69
2023/04/19 04:40:50;;;;;;;5.25;2.30;;;8.60;85.00;;;;;;5070641;28;20025;-69
2023/04/19 04:43:16;;;;;;;8.25;2.33;;;8.70;85.20;;;;;;5070700;28;20081;-68
2023/04/19 04:45:43;;;;;;;7.10;2.30;;;8.60;85.30;;;;;;5070211;28;20120;-69
2023/04/19 04:48:08;;;;;;;3.75;2.00;;;8.60;85.20;;;;;;5069890;28;20488;-69
2023/04/19 04:50:34;;;;;;;7.43;2.40;;;8.60;85.30;;;;;;5069170;28;20040;-68
2023/04/19 04:53:01;;;;;;;5.28;2.25;;;8.60;85.30;;;;;;5070019;28;20029;-69
2023/04/19 04:55:27;;;;;;;3.83;1.88;;;8.60;85.40;;;;;;5070072;28;20025;-68
2023/04/19 04:57:52;;;;;;;8.13;2.40;;;8.60;85.40;;;;;;5070290;28;20040;-69
2023/04/19 05:00:18;;;;;;;5.03;2.33;;;8.60;85.50;;;;;;5070113;28;20339;-69
2023/04/19 05:02:44;;;;;;;3.60;2.03;;;8.70;85.70;;;;;;5070277;28;20028;-69
2023/04/19 05:05:10;;;;;;;5.90;2.17;;;8.70;85.80;;;;;;5069856;28;20138;-69
2023/04/19 05:07:35;;;;;;;6.18;2.03;;;8.70;85.60;;;;;;5071819;28;20070;-69
2023/04/19 05:10:01;;;;;;;4.70;1.70;;;8.70;85.50;;;;;;5074068;28;20395;-70
2023/04/19 05:12:27;;;;;;;9.82;4.68;;;9.00;85.90;;;;;;5073781;28;20032;-68
2023/04/19 05:14:53;;;;;;;9.05;3.28;;;8.80;85.90;;;;;;5073691;28;20093;-69
2023/04/19 05:17:18;;;;;;;10.45;2.63;;;8.80;86.00;;;;;;5073706;28;20117;-69
2023/04/19 05:19:44;;;;;;;4.50;2.03;;;8.80;85.80;;;;;;5073687;28;20078;-69
2023/04/19 05:22:10;;;;;;;10.70;2.65;;;8.80;86.00;;;;;;5073892;28;20474;-68
2023/04/19 05:24:35;;;;;;;6.63;2.35;;;8.80;86.00;;;;;;5073385;28;20032;-68
2023/04/19 05:27:01;;;;;;;10.18;2.47;;;8.80;85.90;;;;;;5073631;28;20033;-68
2023/04/19 05:29:27;;;;;;;5.28;2.15;;;8.80;86.20;;;;;;5073313;28;20025;-69
2023/04/19 05:31:53;;;;;;;4.10;2.15;;;8.80;86.30;;;;;;5072867;28;20037;-68
2023/04/19 05:34:18;;;;;;;5.50;2.00;;;8.80;86.40;;;;;;5072860;28;20089;-70
2023/04/19 05:36:44;;;;;;;4.70;1.88;;;8.80;86.30;;;;;;5073245;28;20029;-70
2023/04/19 05:39:10;;;;;;;3.60;1.63;;;8.80;86.40;;;;;;5073290;28;20036;-69
2023/04/19 05:41:35;;;;;;;10.15;2.53;;;8.90;86.50;;;;;;5073100;28;20101;-70
2023/04/19 05:44:01;;;;;;;5.05;2.58;;;8.90;86.40;;;;;;5073098;28;20025;-69
2023/04/19 05:46:27;;;;;;;7.65;2.08;;;8.90;86.50;;;;;;5071887;28;20039;-69
2023/04/19 05:48:52;;;;;;;6.85;2.28;;;9.00;86.60;;;;;;5072330;28;20664;-69
2023/04/19 05:51:18;;;;;;;4.78;2.42;;;9.00;86.60;;;;;;5073193;28;20043;-68
2023/04/19 05:53:45;;;;;;;7.78;2.33;;;9.00;86.60;;;;;;5072933;28;20025;-69
2023/04/19 05:56:10;;;;;;;8.43;2.05;;;9.00;86.50;;;;;;5072942;28;20025;-71
2023/04/19 05:58:36;;;;;;;4.18;2.13;;;9.10;86.90;;;;;;5071713;28;20365;-70
2023/04/19 06:01:03;;;;;;;9.80;2.13;;;9.20;86.70;;;;;;5073348;28;20099;-70
2023/04/19 06:03:29;;;;;;;9.18;2.47;;;9.30;86.70;;;;;;5072950;28;20460;-70
2023/04/19 06:05:55;;;;;;;9.73;2.20;;;9.30;86.50;;;;;;5072947;28;20024;-68
2023/04/19 06:08:20;;;;;;;7.68;2.20;;;9.40;86.50;;;;;;5072876;28;20033;-70
2023/04/19 06:10:48;;;;;;;8.80;2.53;;;9.50;86.30;;;;;;5074304;28;20047;-69
2023/04/19 06:13:14;;;;;;;7.32;2.55;;;9.60;86.30;;;;;;5073451;28;20090;-68
2023/04/19 06:15:40;;;;;;;5.00;2.05;;;9.70;85.90;;;;;;5072735;28;20366;-68
2023/04/19 06:18:09;;;;;;;7.93;2.10;;;9.80;85.80;;;;;;5071986;28;20380;-70
2023/04/19 06:20:38;;;;;;;4.97;1.67;;;9.90;85.70;;;;;;5072414;28;20029;-69
2023/04/19 06:23:05;;;;;;;4.50;2.28;;;9.90;85.30;;;;;;5072093;28;20135;-69
2023/04/19 06:25:31;;;;;;;3.95;1.88;;;9.90;85.50;;;;;;5072328;28;20059;-71
2023/04/19 06:27:56;;;;;;;4.90;2.60;;;10.20;84.10;;;;;;5071425;28;20024;-70
2023/04/19 06:30:22;;;;;;;9.68;1.65;;;10.10;83.90;;;;;;5072194;28;20514;-70
2023/04/19 06:32:48;;;;;;;4.70;1.58;;;10.10;83.50;;;;;;5071884;28;20052;-70
2023/04/19 06:35:14;;;;;;;4.55;1.67;;;10.10;83.20;;;;;;5072120;28;20029;-70
2023/04/19 06:37:40;;;;;;;5.68;1.80;;;10.10;83.00;;;;;;5072121;28;20079;-70
2023/04/19 06:40:07;;;;;;;4.70;1.67;;;10.30;83.10;;;;;;5072461;28;20055;-70
2023/04/19 06:42:36;;;;;;;6.82;1.45;;;10.20;82.80;;;;;;5071822;28;20033;-70
2023/04/19 06:45:03;;;;;;;5.75;1.73;;;10.30;82.40;;;;;;5071791;28;20028;-69
2023/04/19 06:47:29;;;;;;;8.45;1.83;;;10.40;81.80;;;;;;5071617;28;20050;-68
2023/04/19 06:49:56;;;;;;;5.88;2.10;;;10.60;81.70;;;;;;5070394;28;20032;-70
2023/04/19 06:52:22;;;;;;;4.45;1.20;;;10.50;81.10;;;;;;5073074;28;20086;-69
2023/04/19 06:54:49;;;;;;;6.13;1.65;;;10.50;80.10;;;;;;5072392;28;20036;-70
2023/04/19 06:57:16;;;;;;;6.72;1.40;;;10.50;80.00;;;;;;5071867;28;20055;-70
2023/04/19 06:59:42;;;;;;;4.10;1.50;;;10.50;79.10;;;;;;5071964;28;20091;-71
2023/04/19 07:02:08;;;;;;;4.32;1.58;;;10.50;79.00;;;;;;5071184;28;20411;-69
2023/04/19 07:04:35;;;;;;;11.75;1.80;;;10.40;78.30;;;;;;5071280;28;20048;-71
2023/04/19 07:07:01;;;;;;;1.92;1.20;;;10.40;79.40;;;;;;5072291;28;20020;-70
2023/04/19 07:09:28;;;;;;;3.42;1.23;;;10.60;80.40;;;;;;5071547;28;20043;-68
2023/04/19 07:11:54;;;;;;;4.38;1.58;;;10.60;79.90;;;;;;5071409;28;20040;-69
2023/04/19 07:14:20;;;;;;;3.28;1.30;;;10.60;79.30;;;;;;5071377;28;20025;-69
2023/04/19 07:16:46;;;;;;;7.07;1.45;;;10.70;79.40;;;;;;5071203;28;20103;-70
2023/04/19 07:19:12;;;;;;;5.13;2.92;;;10.70;78.40;;;;;;5071129;28;20032;-69
2023/04/19 07:21:38;;;;;;;1.73;1.10;;;10.70;78.40;;;;;;5071157;28;20036;-71
2023/04/19 07:24:07;;;;;;;3.85;1.63;;;10.80;78.10;;;;;;5070982;28;20066;-71
2023/04/19 07:26:33;;;;;;;4.38;1.88;;;10.80;77.50;;;;;;5069682;28;20055;-70
2023/04/19 07:28:59;;;;;;;7.50;1.98;;;10.90;77.40;;;;;;5070356;28;20075;-71
2023/04/19 07:31:26;;;;;;;2.25;1.35;;;11.10;77.80;;;;;;5069986;28;20037;-69
2023/04/19 07:33:52;;;;;;;3.35;1.60;;;11.10;77.30;;;;;;5071971;28;20025;-67
2023/04/19 07:36:18;;;;;;;2.42;1.65;;;11.20;77.10;;;;;;5070584;28;20028;-70
2023/04/19 07:38:43;;;;;;;4.55;1.60;;;11.60;77.00;;;;;;5070641;28;20051;-71
2023/04/19 07:41:09;;;;;;;3.67;1.67;;;12.30;76.30;;;;;;5071730;28;20059;-71
2023/04/19 07:43:35;;;;;;;3.67;1.30;;;12.90;74.00;;;;;;5070780;28;20024;-68
2023/04/19 07:46:07;;;;;;;5.63;2.22;;;13.40;71.60;;;;;;5071284;28;20024;-68
2023/04/19 07:48:33;;;;;;;3.28;1.40;;;14.00;70.50;;;;;;5069300;28;20036;-69
2023/04/19 07:51:11;;;;;;;6.13;1.60;;;14.30;70.10;;;;;;5070429;28;20028;-69
2023/04/19 07:53:38;;;;;;;5.68;1.95;;;14.30;69.30;;;;;;5069327;28;20029;-70
2023/04/19 07:56:04;;;;;;;2.70;1.35;;;14.10;68.00;;;;;;5070877;28;20103;-70
2023/04/19 07:58:29;;;;;;;4.07;1.73;;;14.10;68.30;;;;;;5070724;28;20025;-70
2023/04/19 08:00:55;;;;;;;2.47;1.38;;;14.00;68.20;;;;;;5070895;28;20043;-70
2023/04/19 08:03:21;;;;;;;4.40;1.90;;;13.90;67.70;;;;;;5070576;28;20051;-70
2023/04/19 08:05:46;;;;;;;3.50;1.63;;;14.00;67.50;;;;;;5070268;28;20056;-70
2023/04/19 08:08:12;;;;;;;3.63;1.60;;;14.60;67.50;;;;;;5070248;28;20114;-69
2023/04/19 08:10:37;;;;;;;3.83;1.58;;;15.60;65.20;;;;;;5069356;28;20119;-70
2023/04/19 08:13:03;;;;;;;2.80;1.50;;;16.70;63.50;;;;;;5069665;28;20025;-73
2023/04/19 08:15:29;;;;;;;3.65;1.23;;;17.80;60.90;;;;;;5070383;28;20036;-71
2023/04/19 08:17:54;;;;;;;3.42;1.33;;;18.60;58.20;;;;;;5069405;28;20493;-71
2023/04/19 08:20:20;;;;;;;3.45;1.63;;;19.40;55.20;;;;;;5069760;28;20111;-67
2023/04/19 08:22:47;;;;;;;5.82;1.33;;;20.20;53.20;;;;;;5075195;28;20028;-69
2023/04/19 08:25:13;;;;;;;3.25;1.60;;;20.50;49.10;;;;;;5070790;28;20020;-68
2023/04/19 08:27:39;;;;;;;2.63;1.38;;;21.10;48.20;;;;;;5070391;28;20028;-68
2023/04/19 08:30:06;;;;;;;3.75;1.52;;;21.50;46.30;;;;;;5070508;28;20335;-68
2023/04/19 08:32:32;;;;;;;3.10;1.60;;;22.10;45.50;;;;;;5069192;28;20353;-69
2023/04/19 08:34:59;;;;;;;2.58;1.73;;;22.30;44.00;;;;;;5071049;28;20111;-70
2023/04/19 08:37:25;;;;;;;3.15;1.45;;;22.50;42.60;;;;;;5071904;28;20110;-70
2023/04/19 08:39:51;;;;;;;5.00;1.48;;;22.70;42.00;;;;;;5071319;28;20044;-69
2023/04/19 08:42:18;;;;;;;3.55;1.52;;;23.40;42.50;;;;;;5074253;28;20029;-69
2023/04/19 08:44:45;;;;;;;3.28;1.70;;;23.90;39.90;;;;;;5074864;28;20439;-69
2023/04/19 08:47:11;;;;;;;2.60;1.67;;;23.50;39.00;;;;;;5074011;28;20098;-68
2023/04/19 08:49:38;;;;;;;2.88;1.80;;;23.40;38.60;;;;;;5073068;28;20033;-69
2023/04/19 08:52:05;;;;;;;4.75;1.58;;;23.40;38.60;;;;;;5074862;28;20033;-69
2023/04/19 08:54:33;;;;;;;4.00;1.48;;;23.70;37.00;;;;;;5074172;28;20469;-69
2023/04/19 08:57:00;;;;;;;5.53;1.90;;;24.10;37.50;;;;;;5072706;28;20025;-69
2023/04/19 08:59:27;;;;;;;2.10;1.48;;;24.60;36.80;;;;;;5073941;28;20394;-70
2023/04/19 09:01:55;;;;;;;4.30;1.60;;;24.90;35.60;;;;;;5073876;28;20032;-69
2023/04/19 09:04:21;;;;;;;3.10;1.40;;;25.60;35.10;;;;;;5074315;28;20095;-71
2023/04/19 09:06:47;;;;;;;3.60;1.50;;;25.50;33.80;;;;;;5072896;28;20039;-69
2023/04/19 09:09:21;;;;;;;3.95;1.25;;;25.30;32.80;;;;;;5072664;28;20024;-69
2023/04/19 09:11:48;;;;;;;3.55;1.60;;;25.30;32.90;;;;;;5073862;28;20028;-71
2023/04/19 09:14:16;;;;;;;1.50;1.15;;;25.40;32.70;;;;;;5073794;28;20036;-72
2023/04/19 09:16:42;;;;;;;;;;;25.10;32.40;;;;;;5074199;28;20361;-72
2023/04/19 09:19:08;;;;;;;4.30;1.48;;;25.40;31.80;;;;;;5074417;28;19928;-69
2023/04/19 09:21:34;;;;;;;10.07;4.22;;;25.50;32.00;;;;;;5073954;28;20032;-70
2023/04/19 09:24:01;;;;;;;6.10;1.67;;;25.90;32.40;;;;;;5073536;28;20182;-71
2023/04/19 09:26:30;;;;;;;3.92;1.60;;;26.30;31.40;;;;;;5073180;28;20068;-72
2023/04/19 09:29:03;;;;;;;1.67;1.33;;;26.10;31.50;;;;;;5073089;28;20020;-70
2023/04/19 09:31:31;;;;;;;3.03;1.58;;;26.80;30.70;;;;;;5073553;28;20162;-70
2023/04/19 09:33:57;;;;;;;2.20;1.52;;;26.50;29.80;;;;;;5073629;28;20035;-70
2023/04/19 09:36:28;;;;;;;2.65;1.40;;;26.20;30.40;;;;;;5073018;28;20058;-72
2023/04/19 09:38:53;;;;;;;4.07;1.35;;;26.60;30.00;;;;;;5073179;28;20028;-70
2023/04/19 09:41:19;;;;;;;5.68;1.55;;;26.50;30.30;;;;;;5072988;28;20366;-71
2023/04/19 09:43:45;;;;;;;3.80;1.50;;;27.20;29.90;;;;;;5072101;28;20559;-69
2023/04/19 09:46:35;;;;;;;3.63;1.38;;;27.00;29.90;;;;;;5074019;28;20056;-69
2023/04/19 09:49:15;;;;;;;4.63;1.80;;;26.90;29.80;;;;;;5073768;28;20082;-69
2023/04/19 09:51:46;;;;;;;2.10;1.33;;;26.90;29.80;;;;;;5073252;28;20029;-69
2023/04/19 09:54:14;;;;;;;8.88;1.77;;;27.50;30.30;;;;;;5072302;28;20024;-70
2023/04/19 09:56:40;;;;;;;3.85;1.35;;;27.20;29.70;;;;;;5073111;28;20389;-70
2023/04/19 09:59:06;;;;;;;2.60;1.65;;;27.10;30.00;;;;;;5072865;28;20178;-71
2023/04/19 10:01:39;;;;;;;3.10;1.65;;;27.50;29.80;;;;;;5073294;28;20028;-70
2023/04/19 10:04:06;;;;;;;4.10;1.65;;;28.00;29.40;;;;;;5073282;28;20489;-71
2023/04/19 10:06:34;;;;;;;2.20;1.63;;;28.30;29.00;;;;;;5072842;28;20029;-70
2023/04/19 10:09:03;;;;;;;;;;;28.00;28.70;;;;;;5073751;28;20123;-71
2023/04/19 10:11:40;;;;;;;7.03;2.10;;;28.50;28.70;;;;;;5072619;28;19908;-70
2023/04/19 10:14:10;;;;;;;4.50;1.48;;;28.80;28.50;;;;;;5074773;28;20029;-69
2023/04/19 10:16:38;;;;;;;3.20;1.67;;;28.70;28.50;;;;;;5057165;28;20293;-70
2023/04/19 10:19:15;;;;;;;3.63;1.70;;;28.50;27.60;;;;;;5073372;28;20017;-70
2023/04/19 10:21:42;;;;;;;2.00;1.40;;;28.00;27.80;;;;;;5072721;28;20707;-70
2023/04/19 10:24:09;;;;;;;4.68;1.80;;;27.90;28.20;;;;;;5072395;28;20048;-71
2023/04/19 10:27:12;;;;;;;3.72;1.67;;;28.40;28.20;;;;;;5072564;28;20312;-71
2023/04/19 10:30:04;;;;;;;6.38;1.73;;;28.10;28.00;;;;;;5072415;28;20032;-72
2023/04/19 10:32:40;;;;;;;8.43;1.40;;;27.80;28.10;;;;;;5072723;28;20147;-72
2023/04/19 10:35:16;;;;;;;2.08;1.25;;;27.70;27.30;;;;;;5073660;28;20094;-71
2023/04/19 10:38:11;;;;;;;2.30;1.20;;;27.20;27.10;;;;;;5073143;28;20036;-73
2023/04/19 10:40:59;;;;;;;3.45;1.70;;;27.00;27.10;;;;;;5073498;28;20374;-73
2023/04/19 10:43:27;;;;;;;;;;;27.00;27.50;;;;;;5073420;28;20017;-70
2023/04/19 10:45:54;;;;;;;2.28;1.45;;;27.10;27.30;;;;;;5073152;28;19918;-72
2023/04/19 10:48:29;;;;;;;1.50;1.33;;;25.80;26.70;;;;;;5071758;28;20047;-71
2023/04/19 10:51:15;;;;;;;8.57;2.10;;;25.60;27.20;;;;;;5071661;28;20257;-71
2023/04/19 10:53:48;;;;;;;3.90;1.42;;;25.60;27.30;;;;;;5071433;28;20037;-71
2023/04/19 10:56:21;;;;;;;4.57;1.25;;;24.60;27.00;;;;;;5071621;28;20032;-71
2023/04/19 10:59:20;;;;;;;6.05;1.95;;;23.90;27.20;;;;;;5071809;28;20142;-70
2023/04/19 11:01:54;;;;;;;3.08;1.52;;;23.60;27.50;;;;;;5071869;28;20043;-69
2023/04/19 11:04:44;;;;;;;1.75;1.20;;;22.30;27.20;;;;;;5072015;28;20059;-70
2023/04/19 11:07:10;;;;;;;4.28;1.63;;;21.90;27.90;;;;;;5051996;28;20055;-69
2023/04/19 11:09:38;;;;;;;7.97;1.58;;;21.60;28.20;;;;;;5071667;28;20466;-70
2023/04/19 11:12:08;;;;;;;8.35;2.15;;;21.40;28.50;;;;;;5071415;28;20479;-70
2023/04/19 11:14:38;;;;;;;5.88;3.10;;;21.00;28.60;;;;;;5070109;28;20024;-68
2023/04/19 11:17:17;;;;;;;4.55;1.90;;;20.70;28.90;;;;;;5071711;28;20439;-70
2023/04/19 11:19:51;;;;;;;1.92;1.35;;;20.70;29.30;;;;;;5071611;28;20039;-69
2023/04/19 11:22:17;;;;;;;3.50;1.88;;;20.50;29.30;;;;;;5071536;28;20060;-68
2023/04/19 11:24:47;;;;;;;8.15;1.77;;;20.50;29.40;;;;;;5070926;28;20025;-68
2023/04/19 11:27:13;;;;;;;4.45;1.50;;;20.40;29.70;;;;;;5069899;28;20036;-68
2023/04/19 11:29:39;;;;;;;5.97;1.90;;;20.30;30.10;;;;;;5071208;28;20025;-69
2023/04/19 11:32:04;;;;;;;3.95;1.38;;;20.10;29.80;;;;;;5070001;28;20177;-71
2023/04/19 11:34:37;;;;;;;3.03;1.45;;;19.90;30.20;;;;;;5068468;28;20032;-70
2023/04/19 11:37:03;;;;;;;5.68;1.70;;;19.90;31.10;;;;;;5070758;28;20020;-68
2023/04/19 11:39:29;;;;;;;5.65;1.65;;;19.80;30.70;;;;;;5070024;28;20404;-70
2023/04/19 11:41:55;;;;;;;1.83;1.27;;;19.80;30.90;;;;;;5071774;28;20438;-71
2023/04/19 11:44:20;;;;;;;3.00;1.65;;;19.80;30.80;;;;;;5071514;28;20404;-72
2023/04/19 11:47:00;;;;;;;1.92;1.10;;;19.90;31.40;;;;;;5072115;28;20031;-68
2023/04/19 11:49:31;;;;;;;7.43;1.63;;;19.80;31.00;;;;;;5071402;28;20112;-70
2023/04/19 11:52:01;;;;;;;2.17;1.45;;;19.60;30.90;;;;;;5071004;28;20040;-69
2023/04/19 11:54:27;;;;;;;7.88;2.05;;;19.50;31.30;;;;;;5070087;28;20177;-70
2023/04/19 11:57:04;;;;;;;4.63;1.73;;;19.30;31.10;;;;;;5070352;28;20032;-69
2023/04/19 11:59:35;;;;;;;5.20;1.65;;;19.20;31.50;;;;;;5071260;28;20037;-69
2023/04/19 12:02:11;;;;;;;4.40;1.67;;;19.20;30.90;;;;;;5071157;28;20370;-70
2023/04/19 12:04:38;;;;;;;3.65;1.63;;;18.90;30.40;;;;;;5071053;28;20037;-70
2023/04/19 12:07:05;;;;;;;3.53;1.70;;;19.00;30.90;;;;;;5071588;28;20024;-69
2023/04/19 12:09:35;;;;;;;9.65;1.75;;;18.80;30.50;;;;;;5071018;28;20042;-69
2023/04/19 12:12:02;;;;;;;3.17;1.70;;;18.80;31.30;;;;;;5070973;28;20060;-70
2023/04/19 12:14:29;;;;;;;2.78;1.70;;;18.80;31.70;;;;;;5070839;28;20025;-69
2023/04/19 12:17:08;;;;;;;5.03;1.77;;;18.90;32.10;;;;;;5070446;28;20028;-69
2023/04/19 12:19:36;;;;;;;4.72;1.55;;;18.90;31.80;;;;;;5070737;28;20040;-70
2023/04/19 12:22:16;;;;;;;5.38;1.77;;;18.90;31.50;;;;;;5071391;28;20518;-70
2023/04/19 12:24:42;;;;;;;7.53;2.03;;;19.10;31.60;;;;;;5070843;28;20032;-72
2023/04/19 12:27:08;;;;;;;4.30;1.90;;;19.10;31.40;;;;;;5069743;28;20090;-70
2023/04/19 12:29:35;;;;;;;5.85;1.88;;;18.80;31.10;;;;;;5069634;28;20098;-72
2023/04/19 12:32:01;;;;;;;9.10;2.17;;;18.60;31.30;;;;;;5070625;28;20536;-69
2023/04/19 12:34:34;;;;;;;5.90;1.52;;;18.50;31.30;;;;;;5070185;28;20454;-69
2023/04/19 12:37:01;;;;;;;6.70;2.00;;;18.40;31.70;;;;;;5070877;28;20394;-70
2023/04/19 12:39:27;;;;;;;6.22;1.70;;;18.30;31.70;;;;;;5069426;28;20033;-70
2023/04/19 12:41:53;;;;;;;4.80;1.63;;;18.40;32.00;;;;;;5070370;28;20044;-70
2023/04/19 12:44:19;;;;;;;5.90;1.70;;;18.30;31.60;;;;;;5070634;28;20033;-70
2023/04/19 12:46:45;;;;;;;5.20;2.20;;;18.10;31.70;;;;;;5070575;28;20487;-67
2023/04/19 12:49:10;;;;;;;6.85;2.30;;;18.10;32.00;;;;;;5070877;28;20391;-70
2023/04/19 12:51:36;;;;;;;4.63;1.85;;;18.00;32.30;;;;;;5070523;28;20032;-70